Time;durP1;ratioP1;P1;durP2;ratioP2;P2;SDS_P1;SDS_P2;PMS_P1;PMS_P2;Temp;Humidity;BMP_temperature;BMP_pressure;BME280_temperature;BME280_humidity;BME280_pressure;Samples;Min_cycle;Max_cycle;Signal;HPM_P1;HPM_P2
2022/04/09 00:00:21;;;;;;;12.83;3.67;;;4.10;1.00;;;;;;4940204;28;20289;-63
2022/04/09 00:02:48;;;;;;;9.37;2.83;;;4.10;1.00;;;;;;4958953;28;20888;-64
2022/04/09 00:05:15;;;;;;;15.40;3.60;;;4.00;1.00;;;;;;4946648;28;20215;-65
2022/04/09 00:07:43;;;;;;;10.63;3.17;;;4.00;1.00;;;;;;4957582;28;20197;-65
2022/04/09 00:10:12;;;;;;;8.13;3.40;;;4.00;45.20;;;;;;4962605;28;20218;-64
2022/04/09 00:12:39;;;;;;;10.90;2.90;;;4.00;41.70;;;;;;4960558;28;20662;-68
2022/04/09 00:15:07;;;;;;;14.90;4.20;;;4.00;99.90;;;;;;4962432;28;20534;-64
2022/04/09 00:17:41;;;;;;;14.47;4.60;;;4.00;79.50;;;;;;4946587;28;20202;-64
2022/04/09 00:20:10;;;;;;;7.43;2.60;;;3.90;99.90;;;;;;4962628;28;20270;-64
2022/04/09 00:22:38;;;;;;;10.87;4.87;;;4.00;99.90;;;;;;4946002;28;20221;-64
2022/04/09 00:25:07;;;;;;;8.57;3.33;;;3.90;99.90;;;;;;4961588;28;20230;-65
2022/04/09 00:27:35;;;;;;;10.50;4.00;;;3.90;99.90;;;;;;4935393;28;20721;-65
2022/04/09 00:30:03;;;;;;;16.03;6.50;;;3.90;99.90;;;;;;4944695;28;20230;-65
2022/04/09 00:32:30;;;;;;;9.87;3.30;;;3.80;99.90;;;;;;4962913;28;20183;-65
2022/04/09 00:34:58;;;;;;;16.17;4.77;;;3.80;99.90;;;;;;4943525;28;20543;-65
2022/04/09 00:37:25;;;;;;;13.10;3.63;;;3.80;99.90;;;;;;4943267;28;20199;-66
2022/04/09 00:39:52;;;;;;;13.33;4.93;;;3.80;99.90;;;;;;4951153;28;20210;-65
2022/04/09 00:42:19;;;;;;;19.40;5.77;;;3.80;99.90;;;;;;4951272;28;20254;-66
2022/04/09 00:44:46;;;;;;;13.93;4.93;;;3.80;99.90;;;;;;4931741;28;20202;-65
2022/04/09 00:47:14;;;;;;;12.43;4.73;;;3.80;99.90;;;;;;4945811;28;20198;-67
2022/04/09 00:49:40;;;;;;;36.10;20.73;;;4.00;99.90;;;;;;4959452;28;20743;-67
2022/04/09 00:52:09;;;;;;;18.50;6.83;;;4.10;37.30;;;;;;4945678;28;20195;-66
2022/04/09 00:54:39;;;;;;;17.10;7.57;;;4.10;4.40;;;;;;4959541;28;20194;-65
2022/04/09 00:57:06;;;;;;;20.53;8.03;;;4.20;1.00;;;;;;4960795;28;20217;-65
2022/04/09 00:59:41;;;;;;;10.63;4.20;;;4.10;1.00;;;;;;4941053;28;20289;-64
2022/04/09 01:02:11;;;;;;;9.87;4.43;;;3.90;45.30;;;;;;4959013;28;20846;-66
2022/04/09 01:04:45;;;;;;;11.37;4.83;;;3.80;99.90;;;;;;4959961;28;20253;-65
2022/04/09 01:07:13;;;;;;;10.30;3.30;;;3.80;99.90;;;;;;4950545;28;20222;-66
2022/04/09 01:09:41;;;;;;;10.20;3.87;;;3.70;99.90;;;;;;4961471;28;20228;-66
2022/04/09 01:12:09;;;;;;;11.37;3.60;;;3.60;99.90;;;;;;4941811;28;20202;-67
2022/04/09 01:14:36;;;;;;;12.37;3.10;;;3.60;99.90;;;;;;4942043;28;20210;-65
2022/04/09 01:17:03;;;;;;;8.10;3.03;;;3.60;99.90;;;;;;4942223;28;20225;-66
2022/04/09 01:19:30;;;;;;;12.20;2.80;;;3.60;99.90;;;;;;4942433;28;20198;-67
2022/04/09 01:22:01;;;;;;;7.60;2.57;;;3.60;99.90;;;;;;4947766;28;20391;-67
2022/04/09 01:24:28;;;;;;;11.43;2.93;;;3.60;99.90;;;;;;4949408;28;20274;-66
2022/04/09 01:26:56;;;;;;;5.93;2.33;;;3.60;99.90;;;;;;4949962;28;20226;-66
2022/04/09 01:29:32;;;;;;;12.87;2.50;;;3.60;99.90;;;;;;4942530;28;20213;-66
2022/04/09 01:31:59;;;;;;;7.47;2.33;;;3.60;99.90;;;;;;4948708;28;20203;-65
2022/04/09 01:34:26;;;;;;;9.63;2.93;;;3.70;99.90;;;;;;4959345;28;20210;-66
2022/04/09 01:36:53;;;;;;;15.53;2.80;;;3.70;99.90;;;;;;4943101;28;20205;-67
2022/04/09 01:39:21;;;;;;;6.50;2.40;;;3.70;99.90;;;;;;4932886;28;20198;-66
2022/04/09 01:41:48;;;;;;;11.77;2.50;;;3.70;99.90;;;;;;4948775;28;20712;-67
2022/04/09 01:44:16;;;;;;;13.03;2.90;;;3.80;99.90;;;;;;4949256;28;20281;-65
2022/04/09 01:46:44;;;;;;;12.60;2.77;;;4.00;99.90;;;;;;4943916;28;20697;-66
2022/04/09 01:49:13;;;;;;;6.27;2.30;;;4.10;99.90;;;;;;4943787;28;20667;-66
2022/04/09 01:51:41;;;;;;;6.30;2.70;;;4.20;99.90;;;;;;4942412;28;20202;-65
2022/04/09 01:54:08;;;;;;;14.23;2.73;;;4.20;91.60;;;;;;4941905;28;20203;-65
2022/04/09 01:56:35;;;;;;;10.77;3.10;;;4.20;42.60;;;;;;4942635;28;20212;-66
2022/04/09 01:59:02;;;;;;;10.13;2.30;;;4.20;82.90;;;;;;4941447;28;20206;-65
2022/04/09 02:01:30;;;;;;;13.47;2.70;;;4.30;66.70;;;;;;4926055;28;20293;-67
2022/04/09 02:03:57;;;;;;;8.83;2.40;;;4.30;36.30;;;;;;4957912;28;20211;-66
2022/04/09 02:06:25;;;;;;;9.30;2.93;;;4.30;69.60;;;;;;4930101;28;20238;-66
2022/04/09 02:08:52;;;;;;;9.17;2.40;;;4.30;58.60;;;;;;4957374;28;20285;-66
2022/04/09 02:11:19;;;;;;;8.37;3.00;;;4.40;57.10;;;;;;4947239;28;20194;-67
2022/04/09 02:13:46;;;;;;;12.97;2.83;;;4.50;3.60;;;;;;4947921;28;20226;-67
2022/04/09 02:16:14;;;;;;;16.60;3.40;;;4.50;1.00;;;;;;4941259;28;20213;-68
2022/04/09 02:18:41;;;;;;;15.37;3.80;;;4.50;1.00;;;;;;4948140;28;21144;-66
2022/04/09 02:21:10;;;;;;;17.23;3.50;;;4.60;1.00;;;;;;4948434;28;20228;-66
2022/04/09 02:23:37;;;;;;;10.80;2.60;;;4.60;1.00;;;;;;4948622;28;20202;-66
2022/04/09 02:26:05;;;;;;;13.47;3.27;;;4.60;1.00;;;;;;4941756;28;20234;-68
2022/04/09 02:28:33;;;;;;;16.93;3.77;;;4.50;1.00;;;;;;4943933;28;20259;-66
2022/04/09 02:31:02;;;;;;;9.83;3.07;;;4.40;7.30;;;;;;4948280;28;20202;-64
2022/04/09 02:33:35;;;;;;;10.87;3.67;;;4.40;98.00;;;;;;4943253;28;20197;-67
2022/04/09 02:36:02;;;;;;;11.97;3.00;;;4.40;91.10;;;;;;4949904;28;20237;-64
2022/04/09 02:38:30;;;;;;;13.27;3.00;;;4.50;84.70;;;;;;4959463;28;20686;-65
2022/04/09 02:40:59;;;;;;;8.70;2.83;;;4.50;35.30;;;;;;4943368;28;20219;-65
2022/04/09 02:43:27;;;;;;;9.40;3.10;;;4.60;1.00;;;;;;4949186;28;20289;-66
2022/04/09 02:45:55;;;;;;;11.43;3.07;;;4.60;1.00;;;;;;4947471;28;20218;-67
2022/04/09 02:48:23;;;;;;;11.33;3.30;;;4.70;1.00;;;;;;4959415;28;20219;-69
2022/04/09 02:50:50;;;;;;;10.93;3.33;;;4.70;1.00;;;;;;4941280;28;20201;-67
2022/04/09 02:53:20;;;;;;;11.50;3.30;;;4.70;1.00;;;;;;4948428;28;20218;-65
2022/04/09 02:55:48;;;;;;;11.63;2.53;;;4.60;1.00;;;;;;4955460;28;20206;-65
2022/04/09 02:58:15;;;;;;;10.23;3.60;;;4.70;1.00;;;;;;4935222;28;20202;-66
2022/04/09 03:00:45;;;;;;;16.67;3.80;;;4.70;1.00;;;;;;4940303;28;20768;-65
2022/04/09 03:03:13;;;;;;;9.40;3.07;;;4.70;1.00;;;;;;4945640;28;20202;-66
2022/04/09 03:05:48;;;;;;;8.10;3.43;;;4.80;1.00;;;;;;4941283;28;20225;-65
2022/04/09 03:08:15;;;;;;;12.50;2.83;;;4.70;1.00;;;;;;4948748;28;20198;-66
2022/04/09 03:10:42;;;;;;;9.40;2.97;;;4.80;1.00;;;;;;4957087;28;20206;-65
2022/04/09 03:13:09;;;;;;;15.73;3.80;;;4.80;1.00;;;;;;4949309;28;20225;-67
2022/04/09 03:15:37;;;;;;;12.33;3.43;;;4.70;1.00;;;;;;4941219;28;20226;-66
2022/04/09 03:18:04;;;;;;;11.83;3.90;;;4.70;1.00;;;;;;4941625;28;20198;-67
2022/04/09 03:20:33;;;;;;;9.87;3.37;;;4.60;1.00;;;;;;4947672;28;20218;-67
2022/04/09 03:23:00;;;;;;;11.93;3.53;;;4.40;1.00;;;;;;4948940;28;20268;-67
2022/04/09 03:25:45;;;;;;;12.50;4.23;;;4.50;66.30;;;;;;4959796;28;20325;-68
2022/04/09 03:28:13;;;;;;;13.17;3.50;;;4.60;99.90;;;;;;4945152;28;20198;-68
2022/04/09 03:30:43;;;;;;;12.93;3.17;;;4.60;90.00;;;;;;4945365;28;20206;-67
2022/04/09 03:33:12;;;;;;;12.87;3.57;;;4.60;99.90;;;;;;4937460;28;20202;-67
2022/04/09 03:35:40;;;;;;;13.70;3.73;;;4.60;99.90;;;;;;4945879;28;20671;-68
2022/04/09 03:38:11;;;;;;;22.27;4.67;;;4.70;98.30;;;;;;4945136;28;20218;-67
2022/04/09 03:40:46;;;;;;;17.27;4.20;;;4.70;99.90;;;;;;4945314;28;20665;-66
2022/04/09 03:43:15;;;;;;;17.73;3.97;;;4.70;99.90;;;;;;4936378;28;20204;-65
2022/04/09 03:45:42;;;;;;;8.83;4.33;;;4.70;99.90;;;;;;4928148;28;20202;-65
2022/04/09 03:48:09;;;;;;;14.33;4.40;;;4.70;99.90;;;;;;4935595;28;20206;-66
2022/04/09 03:50:40;;;;;;;15.97;5.30;;;4.70;1.00;;;;;;4929951;28;20214;-65
2022/04/09 03:53:09;;;;;;;16.37;4.03;;;4.60;1.00;;;;;;4944575;28;20198;-66
2022/04/09 03:55:37;;;;;;;22.13;4.53;;;4.60;1.00;;;;;;4933133;28;20202;-65
2022/04/09 03:58:06;;;;;;;12.13;3.63;;;4.60;1.00;;;;;;4934958;28;20203;-64
2022/04/09 04:00:33;;;;;;;12.60;4.57;;;4.60;1.00;;;;;;4935102;28;20332;-64
2022/04/09 04:03:00;;;;;;;11.50;3.93;;;4.60;99.90;;;;;;4945118;28;20206;-66
2022/04/09 04:05:32;;;;;;;16.00;4.10;;;4.60;99.90;;;;;;4952174;28;20740;-65
2022/04/09 04:07:59;;;;;;;12.70;3.77;;;4.60;99.90;;;;;;4945417;28;20221;-66
2022/04/09 04:10:26;;;;;;;16.43;3.60;;;4.50;99.90;;;;;;4960250;28;20305;-67
2022/04/09 04:13:05;;;;;;;13.07;4.73;;;4.40;99.90;;;;;;4951490;28;20209;-66
2022/04/09 04:15:35;;;;;;;12.87;3.77;;;4.30;1.00;;;;;;4934434;28;20206;-66
2022/04/09 04:18:03;;;;;;;12.80;3.40;;;4.20;1.00;;;;;;4945995;28;20297;-67
2022/04/09 04:20:34;;;;;;;14.23;4.60;;;4.20;1.00;;;;;;4961883;28;20227;-66
2022/04/09 04:23:03;;;;;;;15.13;4.37;;;4.30;1.00;;;;;;4951348;28;20211;-64
2022/04/09 04:25:31;;;;;;;18.73;4.63;;;4.40;1.00;;;;;;4945280;28;20233;-66
2022/04/09 04:27:58;;;;;;;15.70;4.87;;;4.50;99.90;;;;;;4936251;28;20840;-67
2022/04/09 04:30:25;;;;;;;10.73;4.33;;;4.50;99.90;;;;;;4945148;28;20202;-65
2022/04/09 04:32:54;;;;;;;16.57;4.27;;;4.50;99.90;;;;;;4929235;28;20210;-67
2022/04/09 04:35:30;;;;;;;19.17;4.53;;;4.50;99.90;;;;;;4942123;28;20206;-65
2022/04/09 04:37:58;;;;;;;12.03;4.27;;;4.50;99.90;;;;;;4944908;28;20217;-67
2022/04/09 04:40:28;;;;;;;15.10;4.50;;;4.50;99.90;;;;;;4945647;28;20225;-69
2022/04/09 04:42:59;;;;;;;13.87;4.37;;;4.50;99.90;;;;;;4951111;28;20203;-68
2022/04/09 04:45:29;;;;;;;11.00;3.97;;;4.40;99.90;;;;;;4943884;28;20202;-68
2022/04/09 04:47:58;;;;;;;15.67;4.17;;;4.50;99.90;;;;;;4950709;28;20313;-68
2022/04/09 04:50:29;;;;;;;12.97;3.70;;;4.50;99.90;;;;;;4943165;28;20205;-68
2022/04/09 04:52:58;;;;;;;14.87;3.70;;;4.60;99.90;;;;;;4951164;28;20502;-67
2022/04/09 04:55:29;;;;;;;10.03;3.47;;;4.60;99.90;;;;;;4943892;28;20209;-67
2022/04/09 04:57:58;;;;;;;14.87;3.83;;;4.60;1.00;;;;;;4942764;28;20266;-66
2022/04/09 05:00:36;;;;;;;10.17;3.80;;;4.60;1.00;;;;;;4950349;28;20678;-66
2022/04/09 05:03:07;;;;;;;15.83;4.60;;;4.60;1.00;;;;;;4932700;28;20878;-69
2022/04/09 05:05:42;;;;;;;15.93;4.23;;;4.50;1.00;;;;;;4942024;28;20205;-68
2022/04/09 05:08:11;;;;;;;12.43;3.20;;;4.40;1.00;;;;;;4933673;28;20301;-67
2022/04/09 05:10:39;;;;;;;15.33;4.17;;;4.40;1.00;;;;;;4943669;28;20211;-66
2022/04/09 05:13:06;;;;;;;12.87;4.60;;;4.40;1.00;;;;;;4948857;28;20207;-67
2022/04/09 05:15:36;;;;;;;15.60;4.00;;;4.30;1.00;;;;;;4942436;28;20289;-68
2022/04/09 05:18:03;;;;;;;15.23;4.27;;;4.30;1.00;;;;;;4944540;28;20238;-66
2022/04/09 05:20:33;;;;;;;11.40;3.53;;;4.30;1.00;;;;;;4949448;28;20316;-66
2022/04/09 05:23:03;;;;;;;16.20;4.07;;;4.30;1.00;;;;;;4941684;28;20210;-66
2022/04/09 05:25:31;;;;;;;7.83;3.10;;;4.20;1.00;;;;;;4956802;28;20576;-67
2022/04/09 05:28:05;;;;;;;12.83;3.37;;;4.30;1.00;;;;;;4948963;28;20227;-69
2022/04/09 05:30:37;;;;;;;12.83;3.80;;;4.30;1.00;;;;;;4933900;28;20230;-68
2022/04/09 05:33:05;;;;;;;12.97;3.80;;;4.30;1.00;;;;;;4949492;28;20210;-68
2022/04/09 05:35:32;;;;;;;13.50;3.80;;;4.40;1.00;;;;;;4942135;28;20202;-66
2022/04/09 05:37:59;;;;;;;9.20;3.27;;;4.40;99.90;;;;;;4949292;28;20217;-67
2022/04/09 05:40:33;;;;;;;12.93;4.37;;;4.40;99.90;;;;;;4955975;28;20199;-68
2022/04/09 05:43:08;;;;;;;12.13;3.80;;;4.30;99.90;;;;;;4949429;28;20694;-71
2022/04/09 05:45:35;;;;;;;15.33;2.93;;;4.50;99.90;;;;;;4942915;28;20694;-68
2022/04/09 05:48:03;;;;;;;9.60;2.37;;;4.70;98.20;;;;;;4941448;28;20242;-70
2022/04/09 05:50:43;;;;;;;11.53;3.30;;;5.00;1.00;;;;;;4958419;28;20194;-70
2022/04/09 05:53:11;;;;;;;9.17;2.87;;;5.30;1.00;;;;;;4944818;28;20199;-66
2022/04/09 05:55:38;;;;;;;11.33;2.90;;;5.50;1.00;;;;;;4948694;28;20581;-65
2022/04/09 05:58:05;;;;;;;10.30;2.90;;;5.70;1.00;;;;;;4941420;28;20254;-69
2022/04/09 06:00:36;;;;;;;12.50;3.03;;;6.30;1.00;;;;;;4933507;28;20599;-66
2022/04/09 06:03:23;;;;;;;10.77;2.50;;;8.30;1.00;;;;;;4957696;28;20206;-66
2022/04/09 06:05:54;;;;;;;8.90;2.23;;;8.30;1.00;;;;;;4943566;28;20653;-66
2022/04/09 06:08:56;;;;;;;5.17;2.00;;;7.40;1.00;;;;;;4932885;28;20202;-67
2022/04/09 06:11:53;;;;;;;10.77;3.10;;;6.50;99.90;;;;;;4946278;28;20281;-67
2022/04/09 06:14:25;;;;;;;10.73;2.93;;;6.80;99.90;;;;;;4944249;28;20679;-68
2022/04/09 06:16:56;;;;;;;6.60;2.30;;;9.40;1.00;;;;;;4942169;28;20257;-67
2022/04/09 06:19:23;;;;;;;10.63;2.47;;;10.00;99.90;;;;;;4927021;28;20207;-67
2022/04/09 06:21:50;;;;;;;10.03;2.70;;;11.10;99.90;;;;;;4946940;28;20229;-69
2022/04/09 06:24:20;;;;;;;10.87;2.50;;;13.80;1.00;;;;;;4947408;28;20640;-69
2022/04/09 06:26:48;;;;;;;8.83;3.03;;;13.10;1.00;;;;;;4948044;28;20219;-67
2022/04/09 06:29:16;;;;;;;9.87;2.83;;;12.20;1.00;;;;;;4931188;28;20600;-70
2022/04/09 06:31:47;;;;;;;14.83;4.07;;;13.20;1.00;;;;;;4950172;28;20238;-68
2022/04/09 06:34:16;;;;;;;9.70;2.47;;;14.10;1.00;;;;;;4941457;28;20195;-67
2022/04/09 06:36:44;;;;;;;8.73;3.43;;;13.30;1.00;;;;;;4927522;28;20226;-67
2022/04/09 06:39:11;;;;;;;9.83;2.83;;;12.60;1.00;;;;;;4941800;28;20693;-67
2022/04/09 06:41:38;;;;;;;8.40;3.20;;;10.40;1.00;;;;;;4938744;28;20205;-67
2022/04/09 06:44:08;;;;;;;11.83;3.00;;;8.50;99.90;;;;;;4940683;28;20206;-67
2022/04/09 06:46:46;;;;;;;8.83;2.70;;;8.40;1.00;;;;;;4942958;28;20233;-66
2022/04/09 06:49:38;;;;;;;14.13;3.00;;;7.40;1.00;;;;;;4957511;28;20494;-67
2022/04/09 06:52:09;;;;;;;5.77;2.43;;;7.10;1.00;;;;;;4941188;28;20194;-66
2022/04/09 06:54:59;;;;;;;10.27;3.10;;;7.10;1.00;;;;;;4948610;28;20215;-65
2022/04/09 06:57:30;;;;;;;11.00;3.00;;;7.30;1.00;;;;;;4941807;28;20202;-65
2022/04/09 06:59:59;;;;;;;10.40;3.03;;;7.30;1.00;;;;;;4956802;28;20542;-65
2022/04/09 07:02:31;;;;;;;13.57;2.80;;;7.60;1.00;;;;;;4942577;28;20199;-66
2022/04/09 07:04:58;;;;;;;10.20;3.10;;;7.50;1.00;;;;;;4931442;28;20958;-68
2022/04/09 07:07:29;;;;;;;8.60;2.97;;;7.60;1.00;;;;;;4947684;28;20277;-66
2022/04/09 07:10:06;;;;;;;10.70;3.07;;;7.60;1.00;;;;;;4960367;28;20206;-67
2022/04/09 07:12:33;;;;;;;8.47;3.50;;;7.40;1.00;;;;;;4942960;28;20657;-70
2022/04/09 07:15:01;;;;;;;11.30;3.47;;;8.00;1.00;;;;;;4926029;28;20253;-68
2022/04/09 07:17:29;;;;;;;11.93;3.40;;;9.10;1.00;;;;;;4958689;28;20208;-67
2022/04/09 07:20:00;;;;;;;10.60;2.90;;;8.80;99.90;;;;;;4959405;28;20209;-67
2022/04/09 07:22:27;;;;;;;13.23;3.20;;;9.30;99.90;;;;;;4960237;28;20230;-67
2022/04/09 07:24:55;;;;;;;12.73;3.30;;;9.30;99.90;;;;;;4940333;28;20230;-66
2022/04/09 07:27:38;;;;;;;14.53;4.23;;;9.10;99.90;;;;;;4948749;28;20265;-69
2022/04/09 07:30:07;;;;;;;14.23;3.60;;;8.50;99.90;;;;;;4944083;28;20585;-64
2022/04/09 07:32:34;;;;;;;15.60;4.47;;;7.70;1.00;;;;;;4944766;28;20669;-67
2022/04/09 07:35:01;;;;;;;14.70;3.37;;;7.50;1.00;;;;;;4962138;28;20198;-66
2022/04/09 07:37:28;;;;;;;16.10;3.67;;;7.30;1.00;;;;;;4961286;28;20206;-66
2022/04/09 07:39:55;;;;;;;12.07;3.53;;;7.30;1.00;;;;;;4960257;28;20358;-67
2022/04/09 07:42:23;;;;;;;14.57;3.90;;;7.60;1.00;;;;;;4947562;28;20258;-68
2022/04/09 07:44:50;;;;;;;10.97;3.60;;;7.80;1.00;;;;;;4943108;28;20202;-67
2022/04/09 07:47:18;;;;;;;9.73;3.27;;;8.00;1.00;;;;;;4959711;28;20718;-71
2022/04/09 07:49:46;;;;;;;11.20;3.40;;;8.40;1.00;;;;;;4964470;28;20222;-69
2022/04/09 07:52:14;;;;;;;10.70;3.20;;;8.60;1.00;;;;;;4959989;28;20281;-68
2022/04/09 07:54:41;;;;;;;6.60;3.10;;;8.40;1.00;;;;;;4962821;28;20281;-69
2022/04/09 07:57:08;;;;;;;6.50;2.30;;;10.60;1.00;;;;;;4962890;28;20242;-69
2022/04/09 07:59:35;;;;;;;10.63;3.03;;;10.90;1.00;;;;;;4947262;28;20195;-69
2022/04/09 08:02:02;;;;;;;10.30;2.63;;;14.00;1.00;;;;;;4963295;28;20615;-70
2022/04/09 08:04:29;;;;;;;9.80;2.70;;;17.60;1.00;;;;;;4961022;28;20207;-70
2022/04/09 08:06:56;;;;;;;8.57;2.45;;;18.20;99.90;;;;;;4947081;28;20227;-71
2022/04/09 08:09:23;;;;;;;5.90;2.60;;;17.20;99.90;;;;;;4963702;28;20724;-69
2022/04/09 08:11:50;;;;;;;9.13;2.47;;;16.30;99.90;;;;;;4965411;28;20269;-70
2022/04/09 08:14:17;;;;;;;6.13;2.47;;;14.40;99.90;;;;;;4951904;28;20205;-70
2022/04/09 08:16:44;;;;;;;8.27;2.73;;;14.60;1.00;;;;;;4949398;28;20230;-70
2022/04/09 08:19:11;;;;;;;7.30;2.50;;;14.70;99.90;;;;;;4945239;28;20289;-71
2022/04/09 08:21:38;;;;;;;5.97;2.17;;;15.30;99.90;;;;;;4947836;28;20213;-70
2022/04/09 08:24:06;;;;;;;11.35;2.92;;;18.40;99.90;;;;;;4949588;28;20253;-69
2022/04/09 08:26:33;;;;;;;10.15;2.90;;;17.90;99.90;;;;;;4933995;28;20701;-69
2022/04/09 08:29:00;;;;;;;6.15;2.75;;;17.70;99.90;;;;;;4940098;28;20226;-70
2022/04/09 08:31:27;;;;;;;9.45;2.80;;;17.70;99.90;;;;;;4967809;28;20198;-68
2022/04/09 08:33:54;;;;;;;6.72;2.58;;;16.10;99.90;;;;;;4966189;28;20194;-68
2022/04/09 08:36:21;;;;;;;6.63;2.38;;;16.60;99.90;;;;;;4963732;28;20191;-71
2022/04/09 08:38:48;;;;;;;8.63;2.03;;;15.70;99.90;;;;;;4965737;28;20202;-69
2022/04/09 08:41:15;;;;;;;5.80;2.22;;;16.60;99.90;;;;;;4949137;28;20261;-69
2022/04/09 08:43:42;;;;;;;10.33;2.60;;;14.50;99.90;;;;;;4966131;28;20203;-69
2022/04/09 08:46:09;;;;;;;8.07;2.47;;;13.50;99.90;;;;;;4947981;28;20202;-69
2022/04/09 08:48:38;;;;;;;11.97;2.80;;;13.00;99.90;;;;;;4956616;28;20622;-69
2022/04/09 08:51:05;;;;;;;10.00;2.20;;;12.70;1.00;;;;;;4948543;28;20199;-69
2022/04/09 08:53:52;;;;;;;9.23;2.53;;;12.00;1.00;;;;;;4964539;28;20205;-68
2022/04/09 08:56:22;;;;;;;12.03;2.60;;;11.20;1.00;;;;;;4948867;28;20194;-69
2022/04/09 08:58:49;;;;;;;6.77;2.27;;;10.90;1.00;;;;;;4955728;28;20213;-69
2022/04/09 09:01:22;;;;;;;8.70;2.40;;;10.30;1.00;;;;;;4954780;28;20227;-69
2022/04/09 09:03:53;;;;;;;9.77;2.67;;;9.50;99.90;;;;;;4950607;28;20657;-69
2022/04/09 09:06:34;;;;;;;10.13;2.60;;;9.30;99.90;;;;;;4939877;28;20217;-71
2022/04/09 09:09:06;;;;;;;9.73;2.23;;;9.60;99.90;;;;;;4950525;28;20317;-70
2022/04/09 09:11:47;;;;;;;12.60;2.43;;;9.90;29.00;;;;;;4963876;28;20194;-70
2022/04/09 09:14:28;;;;;;;7.97;2.40;;;11.50;1.00;;;;;;4921411;28;20232;-71
2022/04/09 09:17:00;;;;;;;12.80;2.47;;;10.70;1.00;;;;;;4930599;28;20585;-70
2022/04/09 09:19:45;;;;;;;9.33;2.57;;;9.90;99.90;;;;;;4961484;28;20190;-69
2022/04/09 09:22:13;;;;;;;7.77;2.60;;;9.50;99.90;;;;;;4933536;28;20214;-69
2022/04/09 09:24:40;;;;;;;12.37;3.00;;;9.90;99.90;;;;;;4960424;28;20242;-69
2022/04/09 09:27:07;;;;;;;7.53;2.33;;;10.90;92.00;;;;;;4944717;28;20620;-69
2022/04/09 09:29:36;;;;;;;9.90;2.43;;;12.20;1.00;;;;;;4960784;28;20195;-69
2022/04/09 09:32:05;;;;;;;9.13;2.40;;;15.10;1.00;;;;;;4958440;28;20269;-70
2022/04/09 09:38:43;;;;;;;6.57;2.23;;;16.10;99.90;;;;;;4961523;28;20404;-70
2022/04/09 09:41:24;;;;;;;5.30;1.95;;;16.70;99.90;;;;;;4931871;28;20197;-71
2022/04/09 09:44:18;;;;;;;5.57;1.63;;;15.60;99.90;;;;;;4961262;28;21126;-69
2022/04/09 09:46:47;;;;;;;9.63;2.57;;;13.70;99.90;;;;;;4942390;28;20689;-71
2022/04/09 09:49:19;;;;;;;8.03;2.27;;;12.60;1.00;;;;;;4959383;28;20242;-71
2022/04/09 09:52:06;;;;;;;8.90;2.37;;;13.20;1.00;;;;;;4962010;28;20194;-71
2022/04/09 09:54:33;;;;;;;5.30;2.23;;;11.80;1.00;;;;;;4946753;28;20269;-70
2022/04/09 09:57:03;;;;;;;8.63;1.93;;;10.20;12.50;;;;;;4934690;28;20195;-69
2022/04/09 09:59:31;;;;;;;5.50;2.10;;;9.20;99.90;;;;;;4966978;28;20234;-72
2022/04/09 10:01:59;;;;;;;6.90;2.20;;;9.60;99.90;;;;;;4948763;28;20561;-70
2022/04/09 10:04:27;;;;;;;5.20;1.90;;;15.00;1.00;;;;;;4960741;28;20201;-71
2022/04/09 10:06:54;;;;;;;5.93;2.08;;;18.80;1.00;;;;;;4941854;28;20766;-70
2022/04/09 10:09:27;;;;;;;6.20;1.70;;;21.60;1.00;;;;;;4929299;28;20713;-70
2022/04/09 10:11:54;;;;;;;3.28;1.20;;;23.30;99.90;;;;;;4961065;28;20278;-70
2022/04/09 10:14:22;;;;;;;5.03;1.63;;;21.50;99.90;;;;;;4958589;28;20203;-70
2022/04/09 10:16:51;;;;;;;3.40;1.10;;;15.70;99.90;;;;;;4959712;28;20187;-70
2022/04/09 10:19:22;;;;;;;3.17;1.60;;;12.70;1.00;;;;;;4944158;28;20250;-70
2022/04/09 10:21:51;;;;;;;2.15;1.30;;;15.10;1.00;;;;;;4959810;28;20226;-70
2022/04/09 10:24:23;;;;;;;2.35;1.20;;;19.90;99.90;;;;;;4931976;28;20281;-71
2022/04/09 10:26:53;;;;;;;2.40;1.60;;;22.20;99.90;;;;;;4946432;28;20246;-71
2022/04/09 10:29:20;;;;;;;1.73;1.10;;;21.50;99.90;;;;;;4942724;28;20245;-71
2022/04/09 10:31:52;;;;;;;2.17;1.27;;;17.80;99.90;;;;;;4943947;28;20478;-71
2022/04/09 10:34:20;;;;;;;3.67;2.20;;;14.50;99.90;;;;;;4955188;28;20281;-71
2022/04/09 10:36:47;;;;;;;3.63;1.70;;;11.30;1.00;;;;;;4944994;28;20194;-71
2022/04/09 10:39:39;;;;;;;4.80;1.90;;;10.00;99.90;;;;;;4945641;28;20261;-69
2022/04/09 10:42:07;;;;;;;5.53;1.93;;;9.50;99.90;;;;;;4943121;28;20206;-70
2022/04/09 10:44:36;;;;;;;3.47;1.70;;;9.00;1.00;;;;;;4959921;28;20214;-71
2022/04/09 10:47:04;;;;;;;4.07;2.47;;;9.20;1.00;;;;;;4933098;28;20203;-71
2022/04/09 10:49:31;;;;;;;4.23;2.00;;;10.00;99.90;;;;;;4938151;28;20793;-70
2022/04/09 10:52:16;;;;;;;2.63;1.33;;;11.70;1.00;;;;;;4945028;28;20234;-70
2022/04/09 10:55:05;;;;;;;4.80;1.60;;;15.50;1.00;;;;;;4950335;28;20209;-73
2022/04/09 10:57:49;;;;;;;2.65;1.20;;;16.40;1.00;;;;;;4961829;28;20575;-69
2022/04/09 11:00:26;;;;;;;3.00;1.23;;;14.60;1.00;;;;;;4961393;28;20214;-71
2022/04/09 11:03:14;;;;;;;4.65;1.60;;;13.60;1.00;;;;;;4958041;28;20331;-70
2022/04/09 11:05:43;;;;;;;1.83;1.30;;;14.40;1.00;;;;;;4941772;28;20196;-70
2022/04/09 11:08:14;;;;;;;3.05;1.35;;;14.40;1.00;;;;;;4946255;28;20285;-70
2022/04/09 11:10:43;;;;;;;4.22;1.65;;;16.00;1.00;;;;;;4957791;28;20254;-70
2022/04/09 11:13:13;;;;;;;2.67;1.55;;;15.70;1.00;;;;;;4945070;28;20206;-69
2022/04/09 11:15:40;;;;;;;3.00;1.30;;;13.50;1.00;;;;;;4958454;28;20210;-70
2022/04/09 11:18:09;;;;;;;3.37;1.73;;;11.50;1.00;;;;;;4932168;28;20205;-69
2022/04/09 11:20:38;;;;;;;2.90;1.27;;;10.40;99.90;;;;;;4960511;28;20222;-70
2022/04/09 11:23:14;;;;;;;2.70;1.20;;;9.80;99.90;;;;;;4963912;28;20593;-71
2022/04/09 11:25:43;;;;;;;1.47;0.83;;;9.30;99.90;;;;;;4950751;28;20261;-71
2022/04/09 11:28:19;;;;;;;0.97;0.87;;;11.10;1.00;;;;;;4950885;28;20700;-70
2022/04/09 11:31:00;;;;;;;1.57;0.70;;;13.20;1.00;;;;;;4947031;28;20186;-72
2022/04/09 11:33:28;;;;;;;1.63;0.70;;;13.00;1.00;;;;;;4929671;28;20609;-71
2022/04/09 11:36:00;;;;;;;1.10;1.00;;;12.20;1.00;;;;;;4960848;28;20670;-70
2022/04/09 11:38:27;;;;;;;1.87;1.07;;;11.70;1.00;;;;;;4949221;28;21675;-71
2022/04/09 11:40:56;;;;;;;1.63;1.00;;;11.20;1.00;;;;;;4947539;28;20283;-71
2022/04/09 11:43:24;;;;;;;1.93;1.10;;;11.10;1.00;;;;;;4951411;28;20253;-71
2022/04/09 11:45:52;;;;;;;2.20;1.70;;;10.80;1.00;;;;;;4937778;28;20229;-71
2022/04/09 11:48:21;;;;;;;2.40;1.50;;;11.40;1.00;;;;;;4953513;28;20229;-70
2022/04/09 11:50:48;;;;;;;3.93;1.67;;;13.50;1.00;;;;;;4933770;28;20226;-71
2022/04/09 11:53:20;;;;;;;2.13;1.25;;;14.60;1.00;;;;;;4965263;28;20575;-71
2022/04/09 11:55:49;;;;;;;5.80;1.65;;;15.30;1.00;;;;;;4951579;28;20202;-71
2022/04/09 11:58:19;;;;;;;4.45;1.50;;;15.40;1.00;;;;;;4961567;28;20681;-70
2022/04/09 12:00:47;;;;;;;3.17;1.48;;;15.00;1.00;;;;;;4963851;28;20284;-71
2022/04/09 12:03:15;;;;;;;3.80;1.75;;;14.30;1.00;;;;;;4965035;28;20245;-69
2022/04/09 12:05:46;;;;;;;5.82;1.95;;;14.00;1.00;;;;;;4963654;28;20728;-71
2022/04/09 12:08:17;;;;;;;5.13;2.17;;;13.20;1.00;;;;;;4947644;28;20218;-71
2022/04/09 12:10:50;;;;;;;6.07;2.60;;;12.30;1.00;;;;;;4950221;28;20191;-70
2022/04/09 12:13:25;;;;;;;4.97;1.93;;;11.20;1.00;;;;;;4948080;28;20203;-71
2022/04/09 12:15:53;;;;;;;2.87;1.70;;;10.20;99.90;;;;;;4933887;28;20272;-70
2022/04/09 12:18:28;;;;;;;2.83;2.37;;;9.20;1.00;;;;;;4964308;28;20691;-69
2022/04/09 12:20:56;;;;;;;2.43;1.20;;;8.40;1.00;;;;;;4947264;28;20253;-69
2022/04/09 12:23:33;;;;;;;3.70;1.10;;;8.10;1.00;;;;;;4965463;28;20225;-70
2022/04/09 12:26:00;;;;;;;2.67;1.10;;;8.10;1.00;;;;;;4949817;28;20237;-68
2022/04/09 12:28:32;;;;;;;1.27;1.00;;;7.80;1.00;;;;;;4965828;28;20221;-67
2022/04/09 12:31:00;;;;;;;3.33;0.80;;;7.30;99.90;;;;;;4932368;28;20226;-68
2022/04/09 12:33:28;;;;;;;1.63;0.90;;;7.20;1.00;;;;;;4932315;28;20464;-69
2022/04/09 12:36:08;;;;;;;3.97;1.70;;;7.20;1.00;;;;;;4963953;28;20206;-68
2022/04/09 12:38:41;;;;;;;4.37;2.67;;;7.50;99.90;;;;;;4964545;28;21016;-70
2022/04/09 12:41:09;;;;;;;3.20;1.80;;;8.00;99.90;;;;;;4951630;28;20253;-70
2022/04/09 12:43:40;;;;;;;3.93;1.57;;;8.70;1.00;;;;;;4947715;28;20208;-68
2022/04/09 12:46:13;;;;;;;2.63;1.27;;;9.30;1.00;;;;;;4965445;28;20580;-70
2022/04/09 12:48:49;;;;;;;4.50;2.10;;;10.10;1.00;;;;;;4945634;28;20198;-70
2022/04/09 12:51:22;;;;;;;4.77;1.43;;;11.30;99.90;;;;;;4931231;28;20209;-70
2022/04/09 12:53:51;;;;;;;2.97;1.50;;;11.10;99.90;;;;;;4961695;28;20250;-70
2022/04/09 12:56:18;;;;;;;3.37;1.70;;;11.10;99.90;;;;;;4960860;28;20569;-70
2022/04/09 12:58:46;;;;;;;3.50;1.30;;;11.00;99.90;;;;;;4945472;28;20213;-70
2022/04/09 13:01:13;;;;;;;3.10;1.40;;;11.10;99.90;;;;;;4961012;28;20231;-71
2022/04/09 13:03:41;;;;;;;4.37;1.30;;;10.80;99.90;;;;;;4944183;28;20203;-70
2022/04/09 13:06:09;;;;;;;3.00;1.10;;;10.50;99.90;;;;;;4960129;28;20216;-69
2022/04/09 13:08:36;;;;;;;2.67;1.13;;;10.30;99.90;;;;;;4944108;28;20220;-70
2022/04/09 13:11:05;;;;;;;1.33;0.90;;;9.70;99.90;;;;;;4958209;28;20773;-70